sensor_id;sensor_type;location;lat;lon;timestamp;P1;durP1;ratioP1;P2;durP2;ratioP2
75456;SDS011;64036;48.266;14.192;2023-07-31T00:01:18;3.40;;;2.00;;
75456;SDS011;64036;48.266;14.192;2023-07-31T00:03:45;2.50;;;1.60;;
75456;SDS011;64036;48.266;14.192;2023-07-31T00:06:12;3.70;;;1.70;;
75456;SDS011;64036;48.266;14.192;2023-07-31T00:08:38;4.40;;;2.00;;
75456;SDS011;64036;48.266;14.192;2023-07-31T00:11:03;2.20;;;1.60;;
75456;SDS011;64036;48.266;14.192;2023-07-31T00:13:29;2.40;;;1.50;;
75456;SDS011;64036;48.266;14.192;2023-07-31T00:15:55;3.90;;;1.90;;
75456;SDS011;64036;48.266;14.192;2023-07-31T00:18:20;3.30;;;1.80;;
75456;SDS011;64036;48.266;14.192;2023-07-31T00:20:46;2.80;;;1.80;;
75456;SDS011;64036;48.266;14.192;2023-07-31T00:23:12;4.30;;;2.50;;
75456;SDS011;64036;48.266;14.192;2023-07-31T00:25:38;3.60;;;2.00;;
75456;SDS011;64036;48.266;14.192;2023-07-31T00:28:04;3.10;;;2.00;;
75456;SDS011;64036;48.266;14.192;2023-07-31T00:30:29;3.10;;;1.50;;
75456;SDS011;64036;48.266;14.192;2023-07-31T00:32:55;5.40;;;1.90;;
75456;SDS011;64036;48.266;14.192;2023-07-31T00:35:21;1.90;;;1.60;;
75456;SDS011;64036;48.266;14.192;2023-07-31T00:37:47;3.60;;;1.70;;
75456;SDS011;64036;48.266;14.192;2023-07-31T00:40:12;7.50;;;2.00;;
75456;SDS011;64036;48.266;14.192;2023-07-31T00:42:39;2.70;;;1.70;;
75456;SDS011;64036;48.266;14.192;2023-07-31T00:45:05;3.30;;;1.60;;
75456;SDS011;64036;48.266;14.192;2023-07-31T00:47:31;2.30;;;1.70;;
75456;SDS011;64036;48.266;14.192;2023-07-31T00:49:57;2.70;;;1.70;;
75456;SDS011;64036;48.266;14.192;2023-07-31T00:52:23;3.10;;;1.90;;
75456;SDS011;64036;48.266;14.192;2023-07-31T00:54:49;3.10;;;1.60;;
75456;SDS011;64036;48.266;14.192;2023-07-31T00:57:15;2.60;;;1.70;;
75456;SDS011;64036;48.266;14.192;2023-07-31T00:59:40;4.40;;;1.70;;
75456;SDS011;64036;48.266;14.192;2023-07-31T01:02:06;4.40;;;1.50;;
75456;SDS011;64036;48.266;14.192;2023-07-31T01:04:32;4.00;;;1.80;;
75456;SDS011;64036;48.266;14.192;2023-07-31T01:07:08;3.00;;;1.60;;
75456;SDS011;64036;48.266;14.192;2023-07-31T01:09:54;2.90;;;1.50;;
75456;SDS011;64036;48.266;14.192;2023-07-31T01:12:30;4.60;;;1.90;;
75456;SDS011;64036;48.266;14.192;2023-07-31T01:15:06;5.20;;;1.70;;
75456;SDS011;64036;48.266;14.192;2023-07-31T01:17:38;3.60;;;1.90;;
75456;SDS011;64036;48.266;14.192;2023-07-31T01:20:14;2.60;;;1.60;;
75456;SDS011;64036;48.266;14.192;2023-07-31T01:31:00;3.80;;;1.80;;
75456;SDS011;64036;48.266;14.192;2023-07-31T01:33:27;2.40;;;1.60;;
75456;SDS011;64036;48.266;14.192;2023-07-31T01:35:54;6.40;;;1.70;;
75456;SDS011;64036;48.266;14.192;2023-07-31T01:38:22;4.60;;;1.80;;
75456;SDS011;64036;48.266;14.192;2023-07-31T01:40:52;3.10;;;1.90;;
75456;SDS011;64036;48.266;14.192;2023-07-31T01:43:19;3.10;;;1.80;;
75456;SDS011;64036;48.266;14.192;2023-07-31T01:45:45;4.30;;;1.80;;
75456;SDS011;64036;48.266;14.192;2023-07-31T01:48:10;2.90;;;1.90;;
75456;SDS011;64036;48.266;14.192;2023-07-31T01:50:36;3.30;;;2.00;;
75456;SDS011;64036;48.266;14.192;2023-07-31T01:53:02;7.20;;;1.90;;
75456;SDS011;64036;48.266;14.192;2023-07-31T01:55:27;5.70;;;2.00;;
75456;SDS011;64036;48.266;14.192;2023-07-31T01:57:53;2.80;;;1.70;;
75456;SDS011;64036;48.266;14.192;2023-07-31T02:00:19;3.30;;;1.80;;
75456;SDS011;64036;48.266;14.192;2023-07-31T02:02:44;2.30;;;1.60;;
75456;SDS011;64036;48.266;14.192;2023-07-31T02:05:10;2.40;;;1.70;;
75456;SDS011;64036;48.266;14.192;2023-07-31T02:07:36;2.20;;;1.80;;
75456;SDS011;64036;48.266;14.192;2023-07-31T02:10:01;4.50;;;1.80;;
75456;SDS011;64036;48.266;14.192;2023-07-31T02:12:27;4.10;;;1.60;;
75456;SDS011;64036;48.266;14.192;2023-07-31T02:14:56;3.90;;;1.90;;
75456;SDS011;64036;48.266;14.192;2023-07-31T02:17:21;2.50;;;1.80;;
75456;SDS011;64036;48.266;14.192;2023-07-31T02:19:47;3.00;;;1.60;;
75456;SDS011;64036;48.266;14.192;2023-07-31T02:22:13;4.20;;;1.80;;
75456;SDS011;64036;48.266;14.192;2023-07-31T02:24:39;3.40;;;2.00;;
75456;SDS011;64036;48.266;14.192;2023-07-31T02:27:05;3.70;;;1.80;;
75456;SDS011;64036;48.266;14.192;2023-07-31T02:29:31;2.70;;;1.70;;
75456;SDS011;64036;48.266;14.192;2023-07-31T02:31:56;3.80;;;2.00;;
75456;SDS011;64036;48.266;14.192;2023-07-31T02:34:22;3.70;;;1.80;;
75456;SDS011;64036;48.266;14.192;2023-07-31T02:36:48;4.00;;;1.70;;
75456;SDS011;64036;48.266;14.192;2023-07-31T02:39:14;2.70;;;1.70;;
75456;SDS011;64036;48.266;14.192;2023-07-31T02:41:39;3.80;;;1.70;;
75456;SDS011;64036;48.266;14.192;2023-07-31T02:44:05;2.80;;;2.00;;
75456;SDS011;64036;48.266;14.192;2023-07-31T02:46:30;5.00;;;1.80;;
75456;SDS011;64036;48.266;14.192;2023-07-31T02:48:56;3.70;;;2.00;;
75456;SDS011;64036;48.266;14.192;2023-07-31T02:51:23;3.50;;;1.70;;
75456;SDS011;64036;48.266;14.192;2023-07-31T02:53:48;4.90;;;1.70;;
75456;SDS011;64036;48.266;14.192;2023-07-31T02:56:15;4.10;;;1.70;;
75456;SDS011;64036;48.266;14.192;2023-07-31T02:58:40;3.60;;;1.70;;
75456;SDS011;64036;48.266;14.192;2023-07-31T03:01:06;5.30;;;2.10;;
75456;SDS011;64036;48.266;14.192;2023-07-31T03:03:32;3.00;;;1.70;;
75456;SDS011;64036;48.266;14.192;2023-07-31T03:05:57;4.00;;;1.90;;
75456;SDS011;64036;48.266;14.192;2023-07-31T03:08:23;3.30;;;1.90;;
75456;SDS011;64036;48.266;14.192;2023-07-31T03:10:49;5.60;;;2.10;;
75456;SDS011;64036;48.266;14.192;2023-07-31T03:13:14;3.70;;;1.80;;
75456;SDS011;64036;48.266;14.192;2023-07-31T03:15:43;3.70;;;1.90;;
75456;SDS011;64036;48.266;14.192;2023-07-31T03:18:09;2.30;;;1.40;;
75456;SDS011;64036;48.266;14.192;2023-07-31T03:20:35;2.50;;;1.70;;
75456;SDS011;64036;48.266;14.192;2023-07-31T03:23:00;4.70;;;1.90;;
75456;SDS011;64036;48.266;14.192;2023-07-31T03:25:26;3.30;;;2.00;;
75456;SDS011;64036;48.266;14.192;2023-07-31T03:27:52;2.70;;;1.50;;
75456;SDS011;64036;48.266;14.192;2023-07-31T03:30:17;4.70;;;1.60;;
75456;SDS011;64036;48.266;14.192;2023-07-31T03:32:43;5.60;;;2.00;;
75456;SDS011;64036;48.266;14.192;2023-07-31T03:35:09;4.60;;;1.60;;
75456;SDS011;64036;48.266;14.192;2023-07-31T03:37:34;3.40;;;1.70;;
75456;SDS011;64036;48.266;14.192;2023-07-31T03:40:00;2.90;;;1.70;;
75456;SDS011;64036;48.266;14.192;2023-07-31T03:42:26;4.10;;;2.00;;
75456;SDS011;64036;48.266;14.192;2023-07-31T03:44:52;3.70;;;1.80;;
75456;SDS011;64036;48.266;14.192;2023-07-31T03:47:17;4.20;;;1.70;;
75456;SDS011;64036;48.266;14.192;2023-07-31T03:49:43;3.30;;;1.80;;
75456;SDS011;64036;48.266;14.192;2023-07-31T03:52:08;3.60;;;1.80;;
75456;SDS011;64036;48.266;14.192;2023-07-31T03:54:34;3.60;;;1.90;;
75456;SDS011;64036;48.266;14.192;2023-07-31T03:57:00;3.80;;;1.70;;
75456;SDS011;64036;48.266;14.192;2023-07-31T03:59:26;3.20;;;1.80;;
75456;SDS011;64036;48.266;14.192;2023-07-31T04:01:51;3.00;;;1.70;;
75456;SDS011;64036;48.266;14.192;2023-07-31T04:04:17;2.90;;;1.60;;
75456;SDS011;64036;48.266;14.192;2023-07-31T04:06:43;3.60;;;1.80;;
75456;SDS011;64036;48.266;14.192;2023-07-31T04:09:08;2.90;;;1.50;;
75456;SDS011;64036;48.266;14.192;2023-07-31T04:11:34;3.90;;;1.90;;
75456;SDS011;64036;48.266;14.192;2023-07-31T04:14:00;4.00;;;1.90;;
75456;SDS011;64036;48.266;14.192;2023-07-31T04:16:25;3.90;;;1.80;;
75456;SDS011;64036;48.266;14.192;2023-07-31T04:18:51;3.60;;;1.90;;
75456;SDS011;64036;48.266;14.192;2023-07-31T04:21:17;3.30;;;1.80;;
75456;SDS011;64036;48.266;14.192;2023-07-31T04:23:43;4.80;;;1.90;;
75456;SDS011;64036;48.266;14.192;2023-07-31T04:26:08;4.50;;;2.00;;
75456;SDS011;64036;48.266;14.192;2023-07-31T04:28:34;6.50;;;1.80;;
75456;SDS011;64036;48.266;14.192;2023-07-31T04:31:00;4.40;;;1.80;;
75456;SDS011;64036;48.266;14.192;2023-07-31T04:33:25;3.50;;;1.70;;
75456;SDS011;64036;48.266;14.192;2023-07-31T04:35:52;4.30;;;1.70;;
75456;SDS011;64036;48.266;14.192;2023-07-31T04:38:21;2.90;;;1.60;;
75456;SDS011;64036;48.266;14.192;2023-07-31T04:40:47;3.60;;;1.90;;
75456;SDS011;64036;48.266;14.192;2023-07-31T04:43:13;5.80;;;1.80;;
75456;SDS011;64036;48.266;14.192;2023-07-31T04:45:38;3.90;;;1.80;;
75456;SDS011;64036;48.266;14.192;2023-07-31T04:48:04;3.10;;;1.70;;
75456;SDS011;64036;48.266;14.192;2023-07-31T04:50:30;3.80;;;1.60;;
75456;SDS011;64036;48.266;14.192;2023-07-31T04:52:56;6.10;;;1.90;;
75456;SDS011;64036;48.266;14.192;2023-07-31T04:55:22;3.70;;;1.90;;
75456;SDS011;64036;48.266;14.192;2023-07-31T04:57:47;3.90;;;1.80;;
75456;SDS011;64036;48.266;14.192;2023-07-31T05:00:13;3.10;;;1.60;;
75456;SDS011;64036;48.266;14.192;2023-07-31T05:02:39;3.30;;;1.70;;
75456;SDS011;64036;48.266;14.192;2023-07-31T05:05:05;3.90;;;1.80;;
75456;SDS011;64036;48.266;14.192;2023-07-31T05:07:30;5.40;;;1.60;;
75456;SDS011;64036;48.266;14.192;2023-07-31T05:09:56;4.20;;;1.60;;
75456;SDS011;64036;48.266;14.192;2023-07-31T05:12:22;4.30;;;1.90;;
75456;SDS011;64036;48.266;14.192;2023-07-31T05:14:48;4.60;;;1.90;;
75456;SDS011;64036;48.266;14.192;2023-07-31T05:17:13;4.00;;;1.70;;
75456;SDS011;64036;48.266;14.192;2023-07-31T05:19:39;2.60;;;1.60;;
75456;SDS011;64036;48.266;14.192;2023-07-31T05:22:05;4.40;;;1.60;;
75456;SDS011;64036;48.266;14.192;2023-07-31T05:24:31;2.50;;;1.60;;
75456;SDS011;64036;48.266;14.192;2023-07-31T05:26:56;4.00;;;1.60;;
75456;SDS011;64036;48.266;14.192;2023-07-31T05:29:22;2.70;;;1.50;;
75456;SDS011;64036;48.266;14.192;2023-07-31T05:31:48;3.60;;;1.50;;
75456;SDS011;64036;48.266;14.192;2023-07-31T05:34:13;5.20;;;1.60;;
75456;SDS011;64036;48.266;14.192;2023-07-31T05:36:39;2.30;;;1.50;;
75456;SDS011;64036;48.266;14.192;2023-07-31T05:39:05;3.90;;;1.40;;
75456;SDS011;64036;48.266;14.192;2023-07-31T05:41:34;2.60;;;1.40;;
75456;SDS011;64036;48.266;14.192;2023-07-31T05:44:00;3.20;;;1.20;;
75456;SDS011;64036;48.266;14.192;2023-07-31T05:46:26;4.80;;;1.40;;
75456;SDS011;64036;48.266;14.192;2023-07-31T05:48:52;3.20;;;1.40;;
75456;SDS011;64036;48.266;14.192;2023-07-31T05:51:17;4.30;;;1.50;;
75456;SDS011;64036;48.266;14.192;2023-07-31T05:53:43;2.70;;;1.50;;
75456;SDS011;64036;48.266;14.192;2023-07-31T05:56:09;3.50;;;1.20;;
75456;SDS011;64036;48.266;14.192;2023-07-31T05:58:34;2.50;;;1.40;;
75456;SDS011;64036;48.266;14.192;2023-07-31T06:01:00;2.50;;;1.30;;
75456;SDS011;64036;48.266;14.192;2023-07-31T06:03:26;2.40;;;1.10;;
75456;SDS011;64036;48.266;14.192;2023-07-31T06:05:51;3.00;;;1.20;;
75456;SDS011;64036;48.266;14.192;2023-07-31T06:08:17;3.40;;;1.30;;
75456;SDS011;64036;48.266;14.192;2023-07-31T06:10:43;4.10;;;1.50;;
75456;SDS011;64036;48.266;14.192;2023-07-31T06:13:08;4.00;;;1.60;;
75456;SDS011;64036;48.266;14.192;2023-07-31T06:15:34;1.90;;;1.10;;
75456;SDS011;64036;48.266;14.192;2023-07-31T06:18:00;2.40;;;1.10;;
75456;SDS011;64036;48.266;14.192;2023-07-31T06:20:27;2.80;;;1.30;;
75456;SDS011;64036;48.266;14.192;2023-07-31T06:22:53;2.60;;;1.30;;
75456;SDS011;64036;48.266;14.192;2023-07-31T06:25:19;2.60;;;1.20;;
75456;SDS011;64036;48.266;14.192;2023-07-31T06:27:45;2.10;;;1.10;;
75456;SDS011;64036;48.266;14.192;2023-07-31T06:30:11;2.30;;;1.00;;
75456;SDS011;64036;48.266;14.192;2023-07-31T06:32:36;2.20;;;1.10;;
75456;SDS011;64036;48.266;14.192;2023-07-31T06:35:02;3.10;;;1.30;;
75456;SDS011;64036;48.266;14.192;2023-07-31T06:37:28;2.50;;;1.20;;
75456;SDS011;64036;48.266;14.192;2023-07-31T06:39:54;3.00;;;1.20;;
75456;SDS011;64036;48.266;14.192;2023-07-31T06:42:20;3.00;;;1.40;;
75456;SDS011;64036;48.266;14.192;2023-07-31T06:44:46;4.20;;;1.20;;
75456;SDS011;64036;48.266;14.192;2023-07-31T06:47:12;3.70;;;1.20;;
75456;SDS011;64036;48.266;14.192;2023-07-31T06:49:38;3.90;;;1.20;;
75456;SDS011;64036;48.266;14.192;2023-07-31T06:52:03;2.70;;;1.10;;
75456;SDS011;64036;48.266;14.192;2023-07-31T06:54:29;2.80;;;1.20;;
75456;SDS011;64036;48.266;14.192;2023-07-31T06:56:55;2.90;;;1.20;;
75456;SDS011;64036;48.266;14.192;2023-07-31T06:59:20;2.70;;;1.30;;
75456;SDS011;64036;48.266;14.192;2023-07-31T07:01:46;2.30;;;1.20;;
75456;SDS011;64036;48.266;14.192;2023-07-31T07:04:13;2.50;;;1.10;;
75456;SDS011;64036;48.266;14.192;2023-07-31T07:06:39;3.20;;;1.20;;
75456;SDS011;64036;48.266;14.192;2023-07-31T07:09:04;2.80;;;1.10;;
75456;SDS011;64036;48.266;14.192;2023-07-31T07:11:31;3.60;;;1.10;;
75456;SDS011;64036;48.266;14.192;2023-07-31T07:13:56;2.50;;;1.20;;
75456;SDS011;64036;48.266;14.192;2023-07-31T07:16:22;1.60;;;1.00;;
75456;SDS011;64036;48.266;14.192;2023-07-31T07:18:48;3.10;;;0.90;;
75456;SDS011;64036;48.266;14.192;2023-07-31T07:21:13;3.60;;;1.40;;
75456;SDS011;64036;48.266;14.192;2023-07-31T07:23:42;2.40;;;1.00;;
75456;SDS011;64036;48.266;14.192;2023-07-31T07:26:08;2.60;;;1.20;;
75456;SDS011;64036;48.266;14.192;2023-07-31T07:28:34;2.80;;;1.10;;
75456;SDS011;64036;48.266;14.192;2023-07-31T07:30:59;2.30;;;1.30;;
75456;SDS011;64036;48.266;14.192;2023-07-31T07:33:25;3.40;;;1.20;;
75456;SDS011;64036;48.266;14.192;2023-07-31T07:35:51;3.90;;;1.20;;
75456;SDS011;64036;48.266;14.192;2023-07-31T07:38:16;4.20;;;1.10;;
75456;SDS011;64036;48.266;14.192;2023-07-31T07:40:44;4.30;;;1.20;;
75456;SDS011;64036;48.266;14.192;2023-07-31T07:43:12;2.60;;;1.10;;
75456;SDS011;64036;48.266;14.192;2023-07-31T07:45:37;3.30;;;1.20;;
75456;SDS011;64036;48.266;14.192;2023-07-31T07:48:03;2.40;;;1.20;;
75456;SDS011;64036;48.266;14.192;2023-07-31T07:50:29;2.70;;;1.00;;
75456;SDS011;64036;48.266;14.192;2023-07-31T07:52:55;3.90;;;1.40;;
75456;SDS011;64036;48.266;14.192;2023-07-31T07:55:20;3.70;;;1.30;;
75456;SDS011;64036;48.266;14.192;2023-07-31T07:57:46;3.80;;;1.20;;
75456;SDS011;64036;48.266;14.192;2023-07-31T08:00:13;3.70;;;1.30;;
75456;SDS011;64036;48.266;14.192;2023-07-31T08:02:38;3.20;;;1.40;;
75456;SDS011;64036;48.266;14.192;2023-07-31T08:05:04;4.40;;;1.30;;
75456;SDS011;64036;48.266;14.192;2023-07-31T08:07:30;3.60;;;1.30;;
75456;SDS011;64036;48.266;14.192;2023-07-31T08:09:56;2.80;;;1.40;;
75456;SDS011;64036;48.266;14.192;2023-07-31T08:12:21;4.70;;;1.40;;
75456;SDS011;64036;48.266;14.192;2023-07-31T08:14:47;4.50;;;1.30;;
75456;SDS011;64036;48.266;14.192;2023-07-31T08:17:13;4.90;;;1.60;;
75456;SDS011;64036;48.266;14.192;2023-07-31T08:19:38;3.60;;;1.50;;
75456;SDS011;64036;48.266;14.192;2023-07-31T08:22:04;3.90;;;1.40;;
75456;SDS011;64036;48.266;14.192;2023-07-31T08:24:30;3.20;;;1.40;;
75456;SDS011;64036;48.266;14.192;2023-07-31T08:26:55;3.10;;;1.30;;
75456;SDS011;64036;48.266;14.192;2023-07-31T08:29:21;3.50;;;1.50;;
75456;SDS011;64036;48.266;14.192;2023-07-31T08:31:46;3.70;;;1.40;;
75456;SDS011;64036;48.266;14.192;2023-07-31T08:34:12;4.50;;;1.50;;
75456;SDS011;64036;48.266;14.192;2023-07-31T08:36:38;3.40;;;1.40;;
75456;SDS011;64036;48.266;14.192;2023-07-31T08:39:04;3.20;;;1.40;;
75456;SDS011;64036;48.266;14.192;2023-07-31T08:41:29;3.20;;;1.30;;
75456;SDS011;64036;48.266;14.192;2023-07-31T08:43:56;3.60;;;1.40;;
75456;SDS011;64036;48.266;14.192;2023-07-31T08:46:23;2.80;;;1.20;;
75456;SDS011;64036;48.266;14.192;2023-07-31T08:48:49;3.30;;;1.40;;
75456;SDS011;64036;48.266;14.192;2023-07-31T08:51:17;5.10;;;1.40;;
75456;SDS011;64036;48.266;14.192;2023-07-31T08:53:42;2.90;;;1.50;;
75456;SDS011;64036;48.266;14.192;2023-07-31T08:56:09;4.40;;;1.60;;
75456;SDS011;64036;48.266;14.192;2023-07-31T08:58:36;3.50;;;1.40;;
75456;SDS011;64036;48.266;14.192;2023-07-31T09:01:04;2.90;;;1.40;;
75456;SDS011;64036;48.266;14.192;2023-07-31T09:03:34;4.10;;;1.40;;
75456;SDS011;64036;48.266;14.192;2023-07-31T09:06:04;3.70;;;1.50;;
75456;SDS011;64036;48.266;14.192;2023-07-31T09:08:32;3.50;;;1.20;;
75456;SDS011;64036;48.266;14.192;2023-07-31T09:11:01;4.70;;;1.80;;
75456;SDS011;64036;48.266;14.192;2023-07-31T09:13:31;5.10;;;1.30;;
75456;SDS011;64036;48.266;14.192;2023-07-31T09:15:57;2.70;;;1.40;;
75456;SDS011;64036;48.266;14.192;2023-07-31T09:18:23;2.50;;;1.30;;
75456;SDS011;64036;48.266;14.192;2023-07-31T09:21:05;4.70;;;1.40;;
75456;SDS011;64036;48.266;14.192;2023-07-31T09:23:45;5.70;;;1.40;;
75456;SDS011;64036;48.266;14.192;2023-07-31T09:26:39;2.90;;;1.40;;
75456;SDS011;64036;48.266;14.192;2023-07-31T09:29:06;3.60;;;1.40;;
75456;SDS011;64036;48.266;14.192;2023-07-31T09:31:42;5.00;;;1.70;;
75456;SDS011;64036;48.266;14.192;2023-07-31T09:34:08;3.50;;;1.50;;
75456;SDS011;64036;48.266;14.192;2023-07-31T09:36:40;5.00;;;1.40;;
75456;SDS011;64036;48.266;14.192;2023-07-31T09:39:11;2.90;;;1.40;;
75456;SDS011;64036;48.266;14.192;2023-07-31T09:41:39;2.50;;;1.40;;
75456;SDS011;64036;48.266;14.192;2023-07-31T09:44:07;4.10;;;1.50;;
75456;SDS011;64036;48.266;14.192;2023-07-31T09:46:35;2.50;;;1.20;;
75456;SDS011;64036;48.266;14.192;2023-07-31T09:49:14;3.50;;;1.30;;
75456;SDS011;64036;48.266;14.192;2023-07-31T09:51:42;3.10;;;1.60;;
75456;SDS011;64036;48.266;14.192;2023-07-31T09:54:15;3.00;;;1.30;;
75456;SDS011;64036;48.266;14.192;2023-07-31T09:59:12;3.50;;;1.30;;
75456;SDS011;64036;48.266;14.192;2023-07-31T10:01:40;3.30;;;1.20;;
75456;SDS011;64036;48.266;14.192;2023-07-31T10:04:08;2.80;;;1.20;;
75456;SDS011;64036;48.266;14.192;2023-07-31T10:06:37;3.40;;;1.50;;
75456;SDS011;64036;48.266;14.192;2023-07-31T10:09:08;3.50;;;1.50;;
75456;SDS011;64036;48.266;14.192;2023-07-31T10:11:42;3.20;;;1.30;;
75456;SDS011;64036;48.266;14.192;2023-07-31T10:14:19;2.00;;;1.20;;
75456;SDS011;64036;48.266;14.192;2023-07-31T10:16:45;2.50;;;1.20;;
75456;SDS011;64036;48.266;14.192;2023-07-31T10:19:11;3.00;;;1.20;;
75456;SDS011;64036;48.266;14.192;2023-07-31T10:21:37;4.70;;;1.40;;
75456;SDS011;64036;48.266;14.192;2023-07-31T10:24:06;2.60;;;1.20;;
75456;SDS011;64036;48.266;14.192;2023-07-31T10:26:32;4.00;;;1.40;;
75456;SDS011;64036;48.266;14.192;2023-07-31T10:28:59;2.80;;;1.20;;
75456;SDS011;64036;48.266;14.192;2023-07-31T10:31:27;2.70;;;1.40;;
75456;SDS011;64036;48.266;14.192;2023-07-31T10:33:54;3.90;;;1.60;;
75456;SDS011;64036;48.266;14.192;2023-07-31T10:36:24;4.30;;;1.30;;
75456;SDS011;64036;48.266;14.192;2023-07-31T10:38:51;2.40;;;1.20;;
75456;SDS011;64036;48.266;14.192;2023-07-31T10:41:17;2.50;;;1.30;;
75456;SDS011;64036;48.266;14.192;2023-07-31T10:43:42;3.10;;;1.40;;
75456;SDS011;64036;48.266;14.192;2023-07-31T10:46:11;3.20;;;1.20;;
75456;SDS011;64036;48.266;14.192;2023-07-31T10:48:39;2.50;;;1.10;;
75456;SDS011;64036;48.266;14.192;2023-07-31T10:51:12;1.80;;;1.30;;
75456;SDS011;64036;48.266;14.192;2023-07-31T10:53:39;6.40;;;1.50;;
75456;SDS011;64036;48.266;14.192;2023-07-31T10:56:07;2.60;;;1.30;;
75456;SDS011;64036;48.266;14.192;2023-07-31T10:58:34;4.20;;;1.40;;
75456;SDS011;64036;48.266;14.192;2023-07-31T11:01:03;7.30;;;1.50;;
75456;SDS011;64036;48.266;14.192;2023-07-31T11:03:49;4.60;;;1.60;;
75456;SDS011;64036;48.266;14.192;2023-07-31T11:06:18;1.70;;;1.00;;
75456;SDS011;64036;48.266;14.192;2023-07-31T11:08:50;1.90;;;1.20;;
75456;SDS011;64036;48.266;14.192;2023-07-31T11:11:18;3.70;;;1.50;;
75456;SDS011;64036;48.266;14.192;2023-07-31T11:13:45;3.00;;;1.40;;
75456;SDS011;64036;48.266;14.192;2023-07-31T11:16:22;2.60;;;1.20;;
75456;SDS011;64036;48.266;14.192;2023-07-31T11:18:49;2.40;;;1.30;;
75456;SDS011;64036;48.266;14.192;2023-07-31T11:21:22;3.20;;;1.20;;
75456;SDS011;64036;48.266;14.192;2023-07-31T11:23:50;3.80;;;1.30;;
75456;SDS011;64036;48.266;14.192;2023-07-31T11:26:23;3.40;;;1.30;;
75456;SDS011;64036;48.266;14.192;2023-07-31T11:28:50;2.40;;;1.50;;
75456;SDS011;64036;48.266;14.192;2023-07-31T11:31:17;2.50;;;1.30;;
75456;SDS011;64036;48.266;14.192;2023-07-31T11:33:44;3.70;;;1.40;;
75456;SDS011;64036;48.266;14.192;2023-07-31T11:36:20;1.70;;;1.10;;
75456;SDS011;64036;48.266;14.192;2023-07-31T11:38:46;4.40;;;1.30;;
75456;SDS011;64036;48.266;14.192;2023-07-31T11:41:16;3.70;;;1.50;;
75456;SDS011;64036;48.266;14.192;2023-07-31T11:43:42;1.80;;;1.10;;
75456;SDS011;64036;48.266;14.192;2023-07-31T11:46:09;4.40;;;1.30;;
75456;SDS011;64036;48.266;14.192;2023-07-31T11:48:36;3.90;;;1.40;;
75456;SDS011;64036;48.266;14.192;2023-07-31T11:51:05;2.50;;;1.20;;
75456;SDS011;64036;48.266;14.192;2023-07-31T11:53:36;2.50;;;1.30;;
75456;SDS011;64036;48.266;14.192;2023-07-31T11:56:04;2.70;;;1.20;;
75456;SDS011;64036;48.266;14.192;2023-07-31T11:58:31;4.60;;;1.40;;
75456;SDS011;64036;48.266;14.192;2023-07-31T12:00:58;3.50;;;1.30;;
75456;SDS011;64036;48.266;14.192;2023-07-31T12:03:26;3.80;;;1.40;;
75456;SDS011;64036;48.266;14.192;2023-07-31T12:05:53;3.70;;;1.50;;
75456;SDS011;64036;48.266;14.192;2023-07-31T12:08:21;2.70;;;1.30;;
75456;SDS011;64036;48.266;14.192;2023-07-31T12:10:50;3.60;;;1.70;;
75456;SDS011;64036;48.266;14.192;2023-07-31T12:13:24;2.80;;;1.40;;
75456;SDS011;64036;48.266;14.192;2023-07-31T12:15:59;2.30;;;1.20;;
75456;SDS011;64036;48.266;14.192;2023-07-31T12:18:29;3.30;;;1.60;;
75456;SDS011;64036;48.266;14.192;2023-07-31T12:20:58;3.00;;;1.40;;
75456;SDS011;64036;48.266;14.192;2023-07-31T12:23:26;4.10;;;1.60;;
75456;SDS011;64036;48.266;14.192;2023-07-31T12:26:19;2.60;;;1.30;;
75456;SDS011;64036;48.266;14.192;2023-07-31T12:28:47;2.50;;;1.40;;
75456;SDS011;64036;48.266;14.192;2023-07-31T12:31:16;3.70;;;1.50;;
75456;SDS011;64036;48.266;14.192;2023-07-31T12:33:44;4.00;;;1.40;;
75456;SDS011;64036;48.266;14.192;2023-07-31T12:36:13;2.70;;;1.30;;
75456;SDS011;64036;48.266;14.192;2023-07-31T12:38:40;3.50;;;1.70;;
75456;SDS011;64036;48.266;14.192;2023-07-31T12:41:06;2.60;;;1.30;;
75456;SDS011;64036;48.266;14.192;2023-07-31T12:43:33;3.30;;;1.60;;
75456;SDS011;64036;48.266;14.192;2023-07-31T12:46:02;4.50;;;1.60;;
75456;SDS011;64036;48.266;14.192;2023-07-31T12:48:28;2.80;;;1.60;;
75456;SDS011;64036;48.266;14.192;2023-07-31T12:50:54;2.50;;;1.40;;
75456;SDS011;64036;48.266;14.192;2023-07-31T12:53:20;3.00;;;1.30;;
75456;SDS011;64036;48.266;14.192;2023-07-31T12:55:46;3.50;;;1.50;;
75456;SDS011;64036;48.266;14.192;2023-07-31T12:58:12;1.70;;;1.20;;
75456;SDS011;64036;48.266;14.192;2023-07-31T13:00:37;2.00;;;1.30;;
75456;SDS011;64036;48.266;14.192;2023-07-31T13:03:03;2.90;;;1.40;;
75456;SDS011;64036;48.266;14.192;2023-07-31T13:05:29;3.30;;;1.60;;
75456;SDS011;64036;48.266;14.192;2023-07-31T13:07:55;2.20;;;1.30;;
75456;SDS011;64036;48.266;14.192;2023-07-31T13:10:22;2.20;;;1.30;;
75456;SDS011;64036;48.266;14.192;2023-07-31T13:12:49;3.00;;;1.40;;
75456;SDS011;64036;48.266;14.192;2023-07-31T13:15:15;3.10;;;1.40;;
75456;SDS011;64036;48.266;14.192;2023-07-31T13:17:41;4.10;;;1.50;;
75456;SDS011;64036;48.266;14.192;2023-07-31T13:20:07;3.70;;;1.70;;
75456;SDS011;64036;48.266;14.192;2023-07-31T13:22:33;4.20;;;1.60;;
75456;SDS011;64036;48.266;14.192;2023-07-31T13:24:59;4.50;;;1.70;;
75456;SDS011;64036;48.266;14.192;2023-07-31T13:27:24;3.50;;;1.50;;
75456;SDS011;64036;48.266;14.192;2023-07-31T13:29:51;2.60;;;1.40;;
75456;SDS011;64036;48.266;14.192;2023-07-31T13:32:18;3.30;;;1.50;;
75456;SDS011;64036;48.266;14.192;2023-07-31T13:34:48;5.20;;;1.70;;
75456;SDS011;64036;48.266;14.192;2023-07-31T13:37:14;4.30;;;1.90;;
75456;SDS011;64036;48.266;14.192;2023-07-31T13:39:40;2.50;;;1.60;;
75456;SDS011;64036;48.266;14.192;2023-07-31T13:42:07;3.80;;;1.40;;
75456;SDS011;64036;48.266;14.192;2023-07-31T13:44:34;3.30;;;1.50;;
75456;SDS011;64036;48.266;14.192;2023-07-31T13:47:00;2.20;;;1.40;;
75456;SDS011;64036;48.266;14.192;2023-07-31T13:49:27;4.30;;;1.80;;
75456;SDS011;64036;48.266;14.192;2023-07-31T13:51:53;3.10;;;1.50;;
75456;SDS011;64036;48.266;14.192;2023-07-31T13:54:19;3.40;;;1.80;;
75456;SDS011;64036;48.266;14.192;2023-07-31T13:56:45;3.00;;;1.40;;
75456;SDS011;64036;48.266;14.192;2023-07-31T13:59:11;3.20;;;1.30;;
75456;SDS011;64036;48.266;14.192;2023-07-31T14:01:37;3.40;;;1.70;;
75456;SDS011;64036;48.266;14.192;2023-07-31T14:04:03;5.00;;;1.70;;
75456;SDS011;64036;48.266;14.192;2023-07-31T14:06:29;2.70;;;1.50;;
75456;SDS011;64036;48.266;14.192;2023-07-31T14:08:54;2.90;;;1.50;;
75456;SDS011;64036;48.266;14.192;2023-07-31T14:11:21;3.10;;;1.50;;
75456;SDS011;64036;48.266;14.192;2023-07-31T14:13:47;2.90;;;1.70;;
75456;SDS011;64036;48.266;14.192;2023-07-31T14:16:13;2.70;;;1.50;;
75456;SDS011;64036;48.266;14.192;2023-07-31T14:18:39;2.80;;;1.60;;
75456;SDS011;64036;48.266;14.192;2023-07-31T14:21:05;2.60;;;1.50;;
75456;SDS011;64036;48.266;14.192;2023-07-31T14:23:30;2.50;;;1.50;;
75456;SDS011;64036;48.266;14.192;2023-07-31T14:25:56;2.70;;;1.60;;
75456;SDS011;64036;48.266;14.192;2023-07-31T14:28:21;3.10;;;1.60;;
75456;SDS011;64036;48.266;14.192;2023-07-31T14:30:47;3.40;;;1.70;;
75456;SDS011;64036;48.266;14.192;2023-07-31T14:33:13;3.90;;;1.80;;
75456;SDS011;64036;48.266;14.192;2023-07-31T14:35:39;4.00;;;2.00;;
75456;SDS011;64036;48.266;14.192;2023-07-31T14:38:04;2.60;;;1.50;;
75456;SDS011;64036;48.266;14.192;2023-07-31T14:40:30;3.70;;;1.50;;
75456;SDS011;64036;48.266;14.192;2023-07-31T14:42:55;4.10;;;1.80;;